CheckWX is a tool to help pilots better visualize weather data.  It is not intended as a substitute for an official pre-flight weather briefing.

00:52:29 UTC

KALM METAR
Alamogordo-White Sands Regional Airport
Alamogordo, New Mexico, USA
Current

17 mins ago

KALM 240035Z AUTO 18007KT 10SM CLR 19/M08 A3002 RMK AO2
Observed
Mar-24 @ 00:35 UTC
Wind
  • 180° at 7 KTS
Visibility
10 SM
Flight Rules
VFR
Cloud Levels
  • Clear skies
Temperature
19°C / 66°F
Dewpoint
-8°C / 18°F
Humidity
15%
Altimeter
30.02" Hg
Pressure
1016.62 hPa
Previous

37 mins ago

KALM 240015Z AUTO 20006KT 10SM CLR 20/M08 A3002 RMK AO2
Observed
Mar-24 @ 00:15 UTC
Wind
  • 200° at 6 KTS
Visibility
10 SM
Flight Rules
VFR
Cloud Levels
  • Clear skies
Temperature
20°C / 68°F
Dewpoint
-8°C / 18°F
Humidity
14%
Altimeter
30.02" Hg
Pressure
1016.62 hPa
Previous

57 mins ago

KALM 232355Z AUTO 00000KT 10SM CLR 20/M09 A3003 RMK AO2
Observed
Mar-23 @ 23:55 UTC
Visibility
10 SM
Flight Rules
VFR
Cloud Levels
  • Clear skies
Temperature
20°C / 68°F
Dewpoint
-9°C / 16°F
Humidity
13%
Altimeter
30.03" Hg
Pressure
1016.92 hPa